createdAt,value
2017-10-16T00:01:51.266Z,95.60
2017-10-16T00:02:51.271Z,95.60
2017-10-16T00:04:44.683Z,96.17
2017-10-16T00:05:44.663Z,96.17
2017-10-16T00:07:38.072Z,96.55
2017-10-16T00:08:38.063Z,96.74
2017-10-16T00:10:31.487Z,97.13
2017-10-16T00:11:31.462Z,95.79
2017-10-16T00:13:25.846Z,96.08
2017-10-16T00:14:25.855Z,95.98
2017-10-16T00:16:19.270Z,95.89
2017-10-16T00:17:19.272Z,95.79
2017-10-16T00:19:12.642Z,95.12
2017-10-16T00:20:12.654Z,95.03
2017-10-16T00:22:07.087Z,94.65
2017-10-16T00:23:07.043Z,94.46
2017-10-16T00:25:00.459Z,94.08
2017-10-16T00:26:00.443Z,94.56
2017-10-16T00:27:53.859Z,94.56
2017-10-16T00:28:53.840Z,94.56
2017-10-16T00:30:47.229Z,94.65
2017-10-16T00:31:47.236Z,94.27
2017-10-16T00:33:40.663Z,94.37
2017-10-16T00:34:40.634Z,94.46
2017-10-16T00:36:34.081Z,94.74
2017-10-16T00:37:34.031Z,94.65
2017-10-16T00:39:27.443Z,94.74
2017-10-16T00:40:27.422Z,94.65
2017-10-16T00:42:20.821Z,95.03
2017-10-16T00:43:20.823Z,94.93
2017-10-16T00:45:14.249Z,94.46
2017-10-16T00:46:14.217Z,94.18
2017-10-16T00:48:07.632Z,94.56
2017-10-16T00:49:07.622Z,94.46
2017-10-16T00:51:01.039Z,94.56
2017-10-16T00:52:01.037Z,94.56
2017-10-16T00:53:54.409Z,95.03
2017-10-16T00:54:54.414Z,95.70
2017-10-16T00:56:47.842Z,95.22
2017-10-16T00:57:47.828Z,95.70
2017-10-16T00:59:41.203Z,95.41
2017-10-16T01:00:41.207Z,94.93
2017-10-16T01:02:34.637Z,95.41
2017-10-16T01:03:34.606Z,95.03
2017-10-16T01:05:27.993Z,95.03
2017-10-16T01:06:28.003Z,95.03
2017-10-16T01:08:21.437Z,95.03
2017-10-16T01:09:21.407Z,95.03
2017-10-16T01:11:14.816Z,94.84
2017-10-16T01:12:14.802Z,94.93
2017-10-16T01:14:08.224Z,95.22
2017-10-16T01:15:08.224Z,95.41
2017-10-16T01:17:01.606Z,94.84
2017-10-16T01:18:01.611Z,95.17
2017-10-16T01:19:55.045Z,95.65
2017-10-16T01:20:55.016Z,95.84
2017-10-16T01:22:48.414Z,95.84
2017-10-16T01:23:48.420Z,95.75
2017-10-16T01:25:41.842Z,95.56
2017-10-16T01:26:41.816Z,95.75
2017-10-16T01:28:35.215Z,96.03
2017-10-16T01:29:35.235Z,95.22
2017-10-16T01:31:28.663Z,94.89
2017-10-16T01:32:28.623Z,95.27
2017-10-16T01:34:22.007Z,95.75
2017-10-16T01:35:22.016Z,95.36
2017-10-16T01:37:15.446Z,95.08
2017-10-16T01:38:15.409Z,95.17
2017-10-16T01:40:08.801Z,94.60
2017-10-16T01:41:08.811Z,94.22
2017-10-16T01:43:02.235Z,94.70
2017-10-16T01:44:02.204Z,94.70
2017-10-16T01:45:55.588Z,94.98
2017-10-16T01:46:55.594Z,94.98
2017-10-16T01:48:49.021Z,95.27
2017-10-16T01:49:48.999Z,95.36
2017-10-16T01:51:42.391Z,95.65
2017-10-16T01:52:42.398Z,95.56
2017-10-16T01:54:35.860Z,95.56
2017-10-16T01:55:35.808Z,95.84
2017-10-16T01:57:29.188Z,96.22
2017-10-16T01:58:29.195Z,96.41
2017-10-16T02:00:22.621Z,95.94
2017-10-16T02:01:22.598Z,95.65
2017-10-16T02:03:15.988Z,95.36
2017-10-16T02:04:15.990Z,95.75
2017-10-16T02:06:09.528Z,96.03
2017-10-16T02:07:09.389Z,95.65
2017-10-16T02:09:02.781Z,95.36
2017-10-16T02:10:02.785Z,95.36
2017-10-16T02:11:56.215Z,95.36
2017-10-16T02:12:56.184Z,95.36
2017-10-16T02:14:49.594Z,94.70
2017-10-16T02:15:49.586Z,95.17
2017-10-16T02:17:43.015Z,95.36
2017-10-16T02:18:42.992Z,94.89
2017-10-16T02:20:36.382Z,94.79
2017-10-16T02:21:36.401Z,94.22
2017-10-16T02:23:29.817Z,94.51
2017-10-16T02:24:29.786Z,94.89
2017-10-16T02:26:23.200Z,95.08
2017-10-16T02:27:23.182Z,95.17
2017-10-16T02:29:16.620Z,94.89
2017-10-16T02:30:16.588Z,94.98
2017-10-16T02:32:09.990Z,95.27
2017-10-16T02:33:09.990Z,95.17
2017-10-16T02:35:03.431Z,95.75
2017-10-16T02:36:03.397Z,95.65
2017-10-16T02:37:56.781Z,95.84
2017-10-16T02:38:56.790Z,94.51
2017-10-16T02:40:50.207Z,94.89
2017-10-16T02:41:50.215Z,95.75
2017-10-16T02:43:43.579Z,96.31
2017-10-16T02:44:43.583Z,95.94
2017-10-16T02:46:37.018Z,95.56
2017-10-16T02:47:37.008Z,95.46
2017-10-16T02:49:30.364Z,95.75
2017-10-16T02:50:30.376Z,95.75
2017-10-16T02:52:23.788Z,96.31
2017-10-16T02:53:23.767Z,96.89
2017-10-16T02:55:17.159Z,96.98
2017-10-16T02:56:17.164Z,96.31
2017-10-16T02:58:10.603Z,96.12
2017-10-16T02:59:10.567Z,96.22
2017-10-16T03:01:03.949Z,95.65
2017-10-16T03:02:03.960Z,95.94
2017-10-16T03:03:57.412Z,95.56
2017-10-16T03:04:57.354Z,95.89
2017-10-16T03:06:50.747Z,95.84
2017-10-16T03:07:50.753Z,95.65
2017-10-16T03:09:44.171Z,95.84
2017-10-16T03:10:44.152Z,95.36
2017-10-16T03:12:37.533Z,94.70
2017-10-16T03:13:37.540Z,94.70
2017-10-16T03:15:30.967Z,94.27
2017-10-16T03:16:30.960Z,95.12
2017-10-16T03:18:24.338Z,95.17
2017-10-16T03:19:24.341Z,94.74
2017-10-16T03:21:18.765Z,94.93
2017-10-16T03:22:18.732Z,95.27
2017-10-16T03:24:12.138Z,95.36
2017-10-16T03:25:12.131Z,94.70
2017-10-16T03:27:05.557Z,93.55
2017-10-16T03:28:05.523Z,94.27
2017-10-16T03:29:58.930Z,94.08
2017-10-16T03:30:58.929Z,93.70
2017-10-16T03:32:52.355Z,93.70
2017-10-16T03:33:52.320Z,93.32
2017-10-16T03:35:45.717Z,95.60
2017-10-16T03:36:45.721Z,95.60
2017-10-16T03:38:39.151Z,95.70
2017-10-16T03:39:39.132Z,95.98
2017-10-16T03:41:32.523Z,95.03
2017-10-16T03:42:32.524Z,94.93
2017-10-16T03:44:26.956Z,94.65
2017-10-16T03:45:26.926Z,94.56
2017-10-16T03:47:20.311Z,94.84
2017-10-16T03:48:20.327Z,95.41
2017-10-16T03:50:13.736Z,95.12
2017-10-16T03:51:13.712Z,95.22
2017-10-16T03:53:07.101Z,95.03
2017-10-16T03:54:07.107Z,95.22
2017-10-16T03:56:00.531Z,95.22
2017-10-16T03:57:00.499Z,93.99
2017-10-16T03:58:53.900Z,94.84
2017-10-16T03:59:53.922Z,95.32
2017-10-16T04:01:47.394Z,94.37
2017-10-16T04:02:47.439Z,93.60
2017-10-16T04:04:40.713Z,94.46
2017-10-16T04:05:40.756Z,94.46
2017-10-16T04:07:35.190Z,94.74
2017-10-16T04:08:35.205Z,95.60
2017-10-16T04:10:28.578Z,95.22
2017-10-16T04:11:28.612Z,95.60
2017-10-16T04:13:22.079Z,95.51
2017-10-16T04:14:22.001Z,95.41
2017-10-16T04:16:15.384Z,95.60
2017-10-16T04:17:15.455Z,95.12
2017-10-16T04:19:08.780Z,94.84
2017-10-16T04:20:08.797Z,95.51
2017-10-16T04:22:02.197Z,95.32
2017-10-16T04:23:02.202Z,94.65
2017-10-16T04:24:56.688Z,93.89
2017-10-16T04:25:56.603Z,93.89
2017-10-16T04:27:49.965Z,93.70
2017-10-16T04:28:49.960Z,94.51
2017-10-16T04:30:44.412Z,95.55
2017-10-16T04:31:44.434Z,95.27
2017-10-16T04:33:37.800Z,94.89
2017-10-16T04:34:37.777Z,94.70
2017-10-16T04:36:31.518Z,94.65
2017-10-16T04:37:31.190Z,93.60
2017-10-16T04:39:25.626Z,93.41
2017-10-16T04:40:24.592Z,93.65
2017-10-16T04:42:17.988Z,94.42
2017-10-16T04:43:17.990Z,95.22
2017-10-16T04:45:11.377Z,94.60
2017-10-16T04:46:11.373Z,93.46
2017-10-16T04:48:04.601Z,92.71
2017-10-16T04:49:04.511Z,93.56
2017-10-16T04:50:58.802Z,94.42
2017-10-16T04:51:58.920Z,94.32
2017-10-16T04:53:52.354Z,94.98
2017-10-16T04:54:53.189Z,95.27
2017-10-16T04:56:48.680Z,96.12
2017-10-16T04:57:45.566Z,95.94
2017-10-16T04:59:39.060Z,97.07
2017-10-16T05:00:38.994Z,96.69
2017-10-16T05:02:32.642Z,97.07
2017-10-16T05:03:32.365Z,96.69
2017-10-16T05:05:25.811Z,95.55
2017-10-16T05:06:25.927Z,95.08
2017-10-16T05:08:19.183Z,94.60
2017-10-16T05:09:19.250Z,94.89
2017-10-16T05:11:12.622Z,95.27
2017-10-16T05:12:12.590Z,95.17
2017-10-16T05:14:05.952Z,94.89
2017-10-16T05:15:05.986Z,95.46
2017-10-16T05:16:59.420Z,95.55
2017-10-16T05:17:59.401Z,95.84
2017-10-16T05:19:52.796Z,96.03
2017-10-16T05:20:52.770Z,96.22
2017-10-16T05:22:46.217Z,96.12
2017-10-16T05:23:46.189Z,95.84
2017-10-16T05:25:39.553Z,94.79
2017-10-16T05:26:39.575Z,95.65
2017-10-16T05:28:33.029Z,94.70
2017-10-16T05:29:33.592Z,94.98
2017-10-16T05:31:26.359Z,94.79
2017-10-16T05:32:26.341Z,95.08
2017-10-16T05:34:20.816Z,94.23
2017-10-16T05:35:20.766Z,93.56
2017-10-16T05:37:14.168Z,93.46
2017-10-16T05:38:14.182Z,94.23
2017-10-16T05:40:07.575Z,95.27
2017-10-16T05:41:07.595Z,94.98
2017-10-16T05:43:01.973Z,95.08
2017-10-16T05:44:01.953Z,95.08
2017-10-16T05:45:55.381Z,94.70
2017-10-16T05:46:55.326Z,94.70
2017-10-16T05:48:48.826Z,94.32
2017-10-16T05:49:48.739Z,94.23
2017-10-16T05:51:42.173Z,94.79
2017-10-16T05:52:42.156Z,94.42
2017-10-16T05:54:35.515Z,94.13
2017-10-16T05:55:35.556Z,94.70
2017-10-16T05:57:28.921Z,93.65
2017-10-16T05:58:28.952Z,93.46
2017-10-16T06:00:22.340Z,94.70
2017-10-16T06:01:22.347Z,94.60
2017-10-16T06:03:15.768Z,95.65
2017-10-16T06:04:15.698Z,95.65
2017-10-16T06:06:09.107Z,95.27
2017-10-16T06:07:09.126Z,93.84
2017-10-16T06:09:02.542Z,93.18
2017-10-16T06:10:02.505Z,93.46
2017-10-16T06:11:55.909Z,94.32
2017-10-16T06:12:55.936Z,94.60
2017-10-16T06:14:49.316Z,94.32
2017-10-16T06:15:49.320Z,93.56
2017-10-16T06:17:42.703Z,94.32
2017-10-16T06:18:42.675Z,94.23
2017-10-16T06:20:36.108Z,94.51
2017-10-16T06:21:36.076Z,94.42
2017-10-16T06:23:29.489Z,94.79
2017-10-16T06:24:29.490Z,95.17
2017-10-16T06:26:23.917Z,94.32
2017-10-16T06:27:23.904Z,94.13
2017-10-16T06:29:17.291Z,94.70
2017-10-16T06:30:17.292Z,94.89
2017-10-16T06:32:10.691Z,94.89
2017-10-16T06:33:10.683Z,94.98
2017-10-16T06:35:04.069Z,95.27
2017-10-16T06:36:04.054Z,94.89
2017-10-16T06:37:57.500Z,95.70
2017-10-16T06:38:57.457Z,95.89
2017-10-16T06:40:50.872Z,95.98
2017-10-16T06:41:50.869Z,95.98
2017-10-16T06:43:44.311Z,95.98
2017-10-16T06:44:44.291Z,96.45
2017-10-16T06:46:37.679Z,95.98
2017-10-16T06:47:37.669Z,96.36
2017-10-16T06:49:31.087Z,95.70
2017-10-16T06:50:31.069Z,95.70
2017-10-16T06:52:24.563Z,95.70
2017-10-16T06:53:32.266Z,96.17
2017-10-16T06:55:25.772Z,96.26
2017-10-16T06:56:26.694Z,97.03
2017-10-16T06:58:21.027Z,96.89
2017-10-16T06:59:11.376Z,96.89
2017-10-16T07:01:12.525Z,97.08
2017-10-16T07:02:04.884Z,97.93
2017-10-16T07:04:05.880Z,97.45
2017-10-16T07:04:58.178Z,97.93
2017-10-16T07:06:51.650Z,98.12
2017-10-16T07:07:59.322Z,98.22
2017-10-16T07:09:52.687Z,98.22
2017-10-16T07:10:45.073Z,98.03
2017-10-16T07:12:46.138Z,98.50
2017-10-16T07:13:46.047Z,98.65
2017-10-16T07:15:31.856Z,99.12
2017-10-16T07:16:40.392Z,99.79
2017-10-16T07:18:25.222Z,99.99
2017-10-16T07:19:33.911Z,99.69
2017-10-16T07:21:18.649Z,99.99
2017-10-16T07:22:26.290Z,99.99
2017-10-16T07:24:19.658Z,99.99
2017-10-16T07:25:19.635Z,99.99
2017-10-16T07:27:13.092Z,99.99
2017-10-16T07:28:14.104Z,99.93
2017-10-16T07:30:06.518Z,99.93
2017-10-16T07:30:58.879Z,99.99
2017-10-16T07:33:00.877Z,99.99
2017-10-16T07:34:00.762Z,99.99
2017-10-16T07:35:55.295Z,99.99
2017-10-16T07:36:46.662Z,99.99
2017-10-16T07:38:47.703Z,99.99
2017-10-16T07:39:40.088Z,99.99
2017-10-16T07:41:41.132Z,99.27
2017-10-16T07:42:33.443Z,99.75
2017-10-16T07:44:34.428Z,99.99
2017-10-16T07:45:26.845Z,99.75
2017-10-16T07:47:21.229Z,98.56
2017-10-16T07:48:21.202Z,98.85
2017-10-16T07:50:22.326Z,98.46
2017-10-16T07:51:14.616Z,97.89
2017-10-16T07:53:08.124Z,97.89
2017-10-16T07:54:08.118Z,98.18
2017-10-16T07:56:09.151Z,97.32
2017-10-16T07:57:01.525Z,96.84
2017-10-16T07:58:54.960Z,97.89
2017-10-16T07:59:54.874Z,97.89
2017-10-16T08:01:48.216Z,98.08
2017-10-16T08:02:48.305Z,97.61
2017-10-16T08:04:41.764Z,99.04
2017-10-16T08:05:41.695Z,98.75
2017-10-16T08:07:36.053Z,98.70
2017-10-16T08:08:36.079Z,99.18
2017-10-16T08:10:38.118Z,99.99
2017-10-16T08:11:29.487Z,99.99
2017-10-16T08:13:22.895Z,98.13
2017-10-16T08:14:22.907Z,98.18
2017-10-16T08:16:16.320Z,97.80
2017-10-16T08:17:16.427Z,98.56
2017-10-16T08:19:09.756Z,95.32
2017-10-16T08:20:09.837Z,94.84
2017-10-16T08:22:11.644Z,95.03
2017-10-16T08:23:03.173Z,95.08
2017-10-16T08:24:56.613Z,95.17
2017-10-16T08:25:56.627Z,95.27
2017-10-16T08:27:50.912Z,95.56
2017-10-16T08:28:50.897Z,95.84
2017-10-16T08:30:44.313Z,93.55
2017-10-16T08:31:44.400Z,93.93
2017-10-16T08:33:37.803Z,94.22
2017-10-16T08:34:37.808Z,92.79
2017-10-16T08:36:31.173Z,91.69
2017-10-16T08:37:31.107Z,92.74
2017-10-16T08:39:24.649Z,90.64
2017-10-16T08:40:24.677Z,91.11
2017-10-16T08:42:25.573Z,90.59
2017-10-16T08:43:18.009Z,90.30
2017-10-16T08:45:11.558Z,89.73
2017-10-16T08:46:20.889Z,89.82
2017-10-16T08:48:04.820Z,89.34
2017-10-16T08:49:04.855Z,88.53
2017-10-16T08:50:58.261Z,89.39
2017-10-16T08:51:58.569Z,89.01
2017-10-16T08:53:59.834Z,87.09
2017-10-16T08:54:51.680Z,86.08
2017-10-16T08:56:45.269Z,86.66
2017-10-16T08:57:45.239Z,86.57
2017-10-16T08:59:38.778Z,87.04
2017-10-16T09:00:38.837Z,87.14
2017-10-16T09:02:31.934Z,88.29
2017-10-16T09:03:32.176Z,87.18
2017-10-16T09:05:25.576Z,86.85
2017-10-16T09:06:25.633Z,86.28
2017-10-16T09:08:19.026Z,87.95
2017-10-16T09:09:19.124Z,87.81
2017-10-16T09:11:12.469Z,86.94
2017-10-16T09:12:12.540Z,87.33
2017-10-16T09:14:06.830Z,87.23
2017-10-16T09:15:07.044Z,86.08
2017-10-16T09:17:00.164Z,87.33
2017-10-16T09:18:00.450Z,87.47
2017-10-16T09:20:14.187Z,85.08
2017-10-16T09:21:06.445Z,86.80
2017-10-16T09:22:59.939Z,85.75
2017-10-16T09:23:59.788Z,84.88
2017-10-16T09:25:53.388Z,84.69
2017-10-16T09:26:53.248Z,84.06
2017-10-16T09:28:47.501Z,83.30
2017-10-16T09:29:47.559Z,83.11
2017-10-16T09:31:40.990Z,82.73
2017-10-16T09:32:41.083Z,83.05
2017-10-16T09:34:34.508Z,82.29
2017-10-16T09:35:34.595Z,82.67
2017-10-16T09:37:28.841Z,83.25
2017-10-16T09:38:28.901Z,82.09
2017-10-16T09:40:24.275Z,83.09
2017-10-16T09:41:24.244Z,83.29
2017-10-16T09:43:17.772Z,82.90
2017-10-16T09:44:17.731Z,82.18
2017-10-16T09:46:11.292Z,79.61
2017-10-16T09:47:11.065Z,74.60
2017-10-16T09:49:04.599Z,68.45
2017-10-16T09:50:05.053Z,64.28
2017-10-16T09:51:58.220Z,59.01
2017-10-16T09:52:58.601Z,56.16
2017-10-16T09:54:54.063Z,51.59
2017-10-16T09:55:53.967Z,51.14
2017-10-16T09:57:49.641Z,48.57
2017-10-16T09:58:58.624Z,48.30
2017-10-16T10:00:57.107Z,45.62
2017-10-16T10:03:31.050Z,44.57
2017-10-16T10:04:34.386Z,43.79
2017-10-16T10:05:32.929Z,43.60
2017-10-16T10:09:19.847Z,42.38
2017-10-16T10:11:05.121Z,41.71
2017-10-16T10:13:46.833Z,41.83
2017-10-16T10:17:31.555Z,39.80
2017-10-16T10:20:13.653Z,38.43
2017-10-16T10:21:18.367Z,39.31
2017-10-16T10:23:19.641Z,37.50
2017-10-16T10:26:01.836Z,36.52
2017-10-16T10:28:12.000Z,35.80
2017-10-16T10:30:53.435Z,36.85
2017-10-16T10:31:52.543Z,34.89
2017-10-16T10:34:38.107Z,34.31
2017-10-16T10:42:48.392Z,30.83
2017-10-16T10:43:48.382Z,31.73
2017-10-16T10:45:41.815Z,31.29
2017-10-16T10:46:41.815Z,30.60
2017-10-16T10:48:35.279Z,29.43
2017-10-16T10:49:35.271Z,28.65
2017-10-16T10:51:28.693Z,28.36
2017-10-16T10:52:28.712Z,27.67
2017-10-16T10:54:22.199Z,27.53
2017-10-16T10:55:22.190Z,27.83
2017-10-16T10:57:15.568Z,28.64
2017-10-16T10:58:15.589Z,29.11
2017-10-16T11:00:09.047Z,29.08
2017-10-16T11:01:09.031Z,29.46
2017-10-16T11:03:02.452Z,30.74
2017-10-16T11:04:02.467Z,31.90
2017-10-16T11:05:55.915Z,30.54
2017-10-16T11:06:55.918Z,30.52
2017-10-16T11:08:49.335Z,31.41
2017-10-16T11:09:49.359Z,30.82
2017-10-16T11:11:42.815Z,30.18
2017-10-16T11:12:42.797Z,29.87
2017-10-16T11:14:36.219Z,31.13
2017-10-16T11:15:36.248Z,31.52
2017-10-16T11:17:29.679Z,31.23
2017-10-16T11:18:29.682Z,31.70
2017-10-16T11:20:23.096Z,32.06
2017-10-16T11:21:23.118Z,33.41
2017-10-16T11:23:16.551Z,33.38
2017-10-16T11:24:16.555Z,33.75
2017-10-16T11:26:09.972Z,33.61
2017-10-16T11:27:09.990Z,34.29
2017-10-16T11:29:03.431Z,38.01
2017-10-16T11:30:03.426Z,36.65
2017-10-16T11:31:58.811Z,37.62
2017-10-16T11:32:58.737Z,38.20
2017-10-16T11:34:52.183Z,38.85
2017-10-16T11:35:52.164Z,35.44
2017-10-16T11:37:45.579Z,36.92
2017-10-16T11:38:45.595Z,33.82
2017-10-16T11:40:39.028Z,33.73
2017-10-16T11:41:39.030Z,33.23
2017-10-16T11:43:32.441Z,37.60
2017-10-16T11:44:32.462Z,36.55
2017-10-16T11:46:25.921Z,38.44
2017-10-16T11:47:25.898Z,38.42
2017-10-16T11:49:19.311Z,40.08
2017-10-16T11:50:19.324Z,39.31
2017-10-16T11:52:12.762Z,37.99
2017-10-16T11:53:12.753Z,38.79
2017-10-16T11:55:06.173Z,36.86
2017-10-16T11:56:06.190Z,33.83
2017-10-16T11:57:59.829Z,34.45
2017-10-16T11:58:59.823Z,32.09
2017-10-16T12:00:53.249Z,38.22
2017-10-16T12:01:53.260Z,36.14
2017-10-16T12:03:46.705Z,34.11
2017-10-16T12:04:46.704Z,33.92
2017-10-16T12:06:40.107Z,34.59
2017-10-16T12:07:40.125Z,33.14
2017-10-16T12:09:33.574Z,34.69
2017-10-16T12:10:33.552Z,36.18
2017-10-16T12:12:26.962Z,38.10
2017-10-16T12:13:26.976Z,40.70
2017-10-16T12:15:20.406Z,39.20
2017-10-16T12:16:20.406Z,39.76
2017-10-16T12:18:13.816Z,44.12
2017-10-16T12:19:13.840Z,40.83
2017-10-16T12:21:07.263Z,39.28
2017-10-16T12:22:07.258Z,37.24
2017-10-16T12:24:00.683Z,40.95
2017-10-16T12:25:00.693Z,43.75
2017-10-16T12:26:54.140Z,42.50
2017-10-16T12:27:54.118Z,43.19
2017-10-16T12:29:47.528Z,44.28
2017-10-16T12:30:47.541Z,44.65
2017-10-16T12:32:40.985Z,43.05
2017-10-16T12:33:40.965Z,44.38
2017-10-16T12:35:34.374Z,40.77
2017-10-16T12:36:34.388Z,40.97
2017-10-16T12:38:27.823Z,44.37
2017-10-16T12:39:27.812Z,45.14
2017-10-16T12:41:21.225Z,43.93
2017-10-16T12:42:21.239Z,43.13
2017-10-16T12:44:14.681Z,45.27
2017-10-16T12:45:14.658Z,48.54
2017-10-16T12:47:08.065Z,46.41
2017-10-16T12:48:08.080Z,46.22
2017-10-16T12:50:01.513Z,48.42
2017-10-16T12:51:01.504Z,50.16
2017-10-16T12:52:54.911Z,48.42
2017-10-16T12:53:54.926Z,47.45
2017-10-16T12:55:48.375Z,49.07
2017-10-16T12:56:48.360Z,50.92
2017-10-16T12:58:41.752Z,48.11
2017-10-16T12:59:41.774Z,45.20
2017-10-16T13:01:35.196Z,50.33
2017-10-16T13:02:35.204Z,48.49
2017-10-16T13:04:28.595Z,49.65
2017-10-16T13:05:28.607Z,52.46
2017-10-16T13:07:22.054Z,51.52
2017-10-16T13:08:22.039Z,48.54
2017-10-16T13:10:16.430Z,45.64
2017-10-16T13:11:16.445Z,46.99
2017-10-16T13:13:09.882Z,50.07
2017-10-16T13:14:09.870Z,51.52
2017-10-16T13:16:03.286Z,55.85
2017-10-16T13:17:03.300Z,53.04
2017-10-16T13:18:57.748Z,52.46
2017-10-16T13:19:57.727Z,54.30
2017-10-16T13:21:51.136Z,56.60
2017-10-16T13:22:51.149Z,57.18
2017-10-16T13:24:44.592Z,50.89
2017-10-16T13:25:44.568Z,54.53
2017-10-16T13:27:37.963Z,56.76
2017-10-16T13:28:37.978Z,57.21
2017-10-16T13:30:31.416Z,54.41
2017-10-16T13:31:31.398Z,58.06
2017-10-16T13:33:24.801Z,61.44
2017-10-16T13:34:24.812Z,60.38
2017-10-16T13:36:18.270Z,59.70
2017-10-16T13:37:18.261Z,60.86
2017-10-16T13:39:11.673Z,61.92
2017-10-16T13:40:11.686Z,63.08
2017-10-16T13:42:05.128Z,67.04
2017-10-16T13:43:05.103Z,67.52
2017-10-16T13:44:58.511Z,61.51
2017-10-16T13:45:58.518Z,63.24
2017-10-16T13:47:51.953Z,57.45
2017-10-16T13:48:51.942Z,60.83
2017-10-16T13:50:45.356Z,61.12
2017-10-16T13:51:45.369Z,60.99
2017-10-16T13:53:38.786Z,61.80
2017-10-16T13:54:38.786Z,62.63
2017-10-16T13:56:32.193Z,65.08
2017-10-16T13:57:32.194Z,66.24
2017-10-16T13:59:25.629Z,67.17
2017-10-16T14:00:25.615Z,67.65
2017-10-16T14:02:19.021Z,71.12
2017-10-16T14:03:19.032Z,72.52
2017-10-16T14:05:12.472Z,71.32
2017-10-16T14:06:12.443Z,70.36
2017-10-16T14:08:05.847Z,69.87
2017-10-16T14:09:05.857Z,66.97
2017-10-16T14:10:59.278Z,71.19
2017-10-16T14:11:59.280Z,72.15
2017-10-16T14:13:52.679Z,72.44
2017-10-16T14:14:52.687Z,73.69
2017-10-16T14:16:46.123Z,72.92
2017-10-16T14:17:46.103Z,73.21
2017-10-16T14:19:39.510Z,74.18
2017-10-16T14:20:39.522Z,74.52
2017-10-16T14:22:32.968Z,74.14
2017-10-16T14:23:32.937Z,73.31
2017-10-16T14:25:26.340Z,74.05
2017-10-16T14:26:26.354Z,73.66
2017-10-16T14:28:19.774Z,74.05
2017-10-16T14:29:19.769Z,71.73
2017-10-16T14:31:13.169Z,69.07
2017-10-16T14:32:13.182Z,71.44
2017-10-16T14:34:06.607Z,74.91
2017-10-16T14:35:06.595Z,74.05
2017-10-16T14:37:00.008Z,74.91
2017-10-16T14:38:00.012Z,74.30
2017-10-16T14:39:53.443Z,74.24
2017-10-16T14:40:53.439Z,73.53
2017-10-16T14:42:46.834Z,75.93
2017-10-16T14:43:46.842Z,75.26
2017-10-16T14:45:40.265Z,77.38
2017-10-16T14:46:40.259Z,77.67
2017-10-16T14:48:33.664Z,77.34
2017-10-16T14:49:33.673Z,76.76
2017-10-16T14:51:27.098Z,75.51
2017-10-16T14:52:27.084Z,76.73
2017-10-16T14:54:20.484Z,74.22
2017-10-16T14:55:20.496Z,74.90
2017-10-16T14:57:13.938Z,77.01
2017-10-16T14:58:13.908Z,77.01
2017-10-16T15:00:07.321Z,77.31
2017-10-16T15:01:07.325Z,77.88
2017-10-16T15:03:00.741Z,77.69
2017-10-16T15:04:00.736Z,77.69
2017-10-16T15:05:54.148Z,76.53
2017-10-16T15:06:54.159Z,77.17
2017-10-16T15:08:47.608Z,76.78
2017-10-16T15:09:47.573Z,77.26
2017-10-16T15:11:40.974Z,77.56
2017-10-16T15:12:40.987Z,77.46
2017-10-16T15:14:34.423Z,78.42
2017-10-16T15:15:34.399Z,78.42
2017-10-16T15:17:27.799Z,79.53
2017-10-16T15:18:27.810Z,79.44
2017-10-16T15:20:21.253Z,80.79
2017-10-16T15:21:21.228Z,81.46
2017-10-16T15:23:15.633Z,81.23
2017-10-16T15:24:15.641Z,81.81
2017-10-16T15:26:09.086Z,82.09
2017-10-16T15:27:09.055Z,81.42
2017-10-16T15:29:02.470Z,81.23
2017-10-16T15:30:02.477Z,81.52
2017-10-16T15:31:55.931Z,81.61
2017-10-16T15:32:55.890Z,82.86
2017-10-16T15:34:49.288Z,82.19
2017-10-16T15:35:49.313Z,82.48
2017-10-16T15:37:42.736Z,83.53
2017-10-16T15:38:42.726Z,83.49
2017-10-16T15:40:36.126Z,83.78
2017-10-16T15:41:36.135Z,83.78
2017-10-16T15:43:29.588Z,83.78
2017-10-16T15:44:29.544Z,84.36
2017-10-16T15:46:22.949Z,85.13
2017-10-16T15:47:22.953Z,85.71
2017-10-16T15:49:16.396Z,85.85
2017-10-16T15:50:16.366Z,85.75
2017-10-16T15:52:09.766Z,86.72
2017-10-16T15:53:09.773Z,87.68
2017-10-16T15:55:03.220Z,87.77
2017-10-16T15:56:03.190Z,88.35
2017-10-16T15:57:56.585Z,89.02
2017-10-16T15:58:56.597Z,89.50
2017-10-16T16:00:50.031Z,89.94
2017-10-16T16:01:50.003Z,89.94
2017-10-16T16:03:43.402Z,90.90
2017-10-16T16:04:43.415Z,90.42
2017-10-16T16:06:36.832Z,91.57
2017-10-16T16:07:36.825Z,91.09
2017-10-16T16:09:30.246Z,91.19
2017-10-16T16:10:30.259Z,91.09
2017-10-16T16:12:23.695Z,91.14
2017-10-16T16:13:23.688Z,91.24
2017-10-16T16:15:17.077Z,91.52
2017-10-16T16:16:17.071Z,90.47
2017-10-16T16:18:10.519Z,91.14
2017-10-16T16:19:10.491Z,91.19
2017-10-16T16:21:03.894Z,91.38
2017-10-16T16:22:03.908Z,91.28
2017-10-16T16:23:57.319Z,91.57
2017-10-16T16:24:57.306Z,91.72
2017-10-16T16:26:50.710Z,92.91
2017-10-16T16:27:50.719Z,92.24
2017-10-16T16:29:44.151Z,91.82
2017-10-16T16:30:44.121Z,91.43
2017-10-16T16:32:37.518Z,91.24
2017-10-16T16:33:37.535Z,91.63
2017-10-16T16:35:30.975Z,91.00
2017-10-16T16:36:30.940Z,91.19
2017-10-16T16:38:24.346Z,91.96
2017-10-16T16:39:24.355Z,91.00
2017-10-16T16:41:17.764Z,91.19
2017-10-16T16:42:17.758Z,91.39
2017-10-16T16:44:11.183Z,91.77
2017-10-16T16:45:11.165Z,91.49
2017-10-16T16:47:04.617Z,91.53
2017-10-16T16:48:04.580Z,91.53
2017-10-16T16:49:57.976Z,91.15
2017-10-16T16:50:58.003Z,91.53
2017-10-16T16:52:59.293Z,91.05
2017-10-16T16:53:51.589Z,91.63
2017-10-16T16:55:44.993Z,91.05
2017-10-16T16:56:44.986Z,90.96
2017-10-16T16:58:38.400Z,92.01
2017-10-16T16:59:38.397Z,91.34
2017-10-16T17:01:31.786Z,91.30
2017-10-16T17:02:31.804Z,91.30
2017-10-16T17:04:25.259Z,91.39
2017-10-16T17:05:25.254Z,91.97
2017-10-16T17:07:18.595Z,91.49
2017-10-16T17:08:18.615Z,91.58
2017-10-16T17:10:12.037Z,91.68
2017-10-16T17:11:12.013Z,91.49
2017-10-16T17:13:05.438Z,91.44
2017-10-16T17:14:05.435Z,91.73
2017-10-16T17:15:58.834Z,91.44
2017-10-16T17:16:58.818Z,91.63
2017-10-16T17:18:52.226Z,91.53
2017-10-16T17:19:52.228Z,90.87
2017-10-16T17:21:45.673Z,91.35
2017-10-16T17:22:45.649Z,89.81
2017-10-16T17:24:39.029Z,89.81
2017-10-16T17:25:39.041Z,90.06
2017-10-16T17:27:32.470Z,90.34
2017-10-16T17:28:32.448Z,90.73
2017-10-16T17:30:25.840Z,91.68
2017-10-16T17:31:25.845Z,91.39
2017-10-16T17:33:19.286Z,90.73
2017-10-16T17:34:19.258Z,92.64
2017-10-16T17:36:12.653Z,92.64
2017-10-16T17:37:12.662Z,92.54
2017-10-16T17:39:06.087Z,92.64
2017-10-16T17:40:06.074Z,92.64
2017-10-16T17:41:59.483Z,91.30
2017-10-16T17:42:59.467Z,91.59
2017-10-16T17:44:52.908Z,91.68
2017-10-16T17:45:52.871Z,91.88
2017-10-16T17:47:46.291Z,91.39
2017-10-16T17:48:46.316Z,91.59
2017-10-16T17:50:39.732Z,90.78
2017-10-16T17:51:39.705Z,91.64
2017-10-16T17:53:33.114Z,91.30
2017-10-16T17:54:33.103Z,91.25
2017-10-16T17:56:26.545Z,90.78
2017-10-16T17:57:26.530Z,91.16
2017-10-16T17:59:20.608Z,91.45
2017-10-16T18:00:19.979Z,90.97
2017-10-16T18:02:13.364Z,90.88
2017-10-16T18:03:13.339Z,91.54
2017-10-16T18:05:06.729Z,91.64
2017-10-16T18:06:06.748Z,91.50
2017-10-16T18:08:00.185Z,91.02
2017-10-16T18:09:00.148Z,91.02
2017-10-16T18:10:53.545Z,90.92
2017-10-16T18:11:53.549Z,91.11
2017-10-16T18:13:46.991Z,91.21
2017-10-16T18:14:46.959Z,91.50
2017-10-16T18:16:40.345Z,91.40
2017-10-16T18:17:40.354Z,91.69
2017-10-16T18:19:33.789Z,91.45
2017-10-16T18:20:33.757Z,91.40
2017-10-16T18:22:27.160Z,91.74
2017-10-16T18:23:27.166Z,91.83
2017-10-16T18:25:20.580Z,91.16
2017-10-16T18:26:20.883Z,91.97
2017-10-16T18:28:13.957Z,91.97
2017-10-16T18:29:13.971Z,91.30
2017-10-16T18:31:07.400Z,90.59
2017-10-16T18:32:07.366Z,90.69
2017-10-16T18:34:00.761Z,89.83
2017-10-16T18:35:00.768Z,88.97
2017-10-16T18:36:54.206Z,88.78
2017-10-16T18:37:54.174Z,89.54
2017-10-16T18:39:47.567Z,90.88
2017-10-16T18:40:47.568Z,91.36
2017-10-16T18:42:40.996Z,91.41
2017-10-16T18:43:40.980Z,91.78
2017-10-16T18:45:34.382Z,92.17
2017-10-16T18:46:34.390Z,91.78
2017-10-16T18:48:28.827Z,91.41
2017-10-16T18:49:28.800Z,91.45
2017-10-16T18:51:22.196Z,91.60
2017-10-16T18:52:22.202Z,91.45
2017-10-16T18:54:15.614Z,91.60
2017-10-16T18:55:15.602Z,91.78
2017-10-16T18:57:09.015Z,91.78